sensor_id;sensor_type;location;lat;lon;timestamp;pressure;altitude;pressure_sealevel;temperature;humidity
9421;BME280;4749;51.398;5.466;2023-03-16T00:00:18;101597.53;;;5.48;100.00
9421;BME280;4749;51.398;5.466;2023-03-16T00:02:45;101598.47;;;5.50;100.00
9421;BME280;4749;51.398;5.466;2023-03-16T00:05:13;101599.34;;;5.51;100.00
9421;BME280;4749;51.398;5.466;2023-03-16T00:07:41;101594.22;;;5.54;100.00
9421;BME280;4749;51.398;5.466;2023-03-16T00:10:10;101590.78;;;5.55;100.00
9421;BME280;4749;51.398;5.466;2023-03-16T00:12:39;101593.47;;;5.56;100.00
9421;BME280;4749;51.398;5.466;2023-03-16T00:15:10;101589.09;;;5.55;100.00
9421;BME280;4749;51.398;5.466;2023-03-16T00:17:38;101582.97;;;5.55;100.00
9421;BME280;4749;51.398;5.466;2023-03-16T00:20:06;101582.19;;;5.57;100.00
9421;BME280;4749;51.398;5.466;2023-03-16T00:22:34;101579.59;;;5.57;100.00
9421;BME280;4749;51.398;5.466;2023-03-16T00:25:01;101586.53;;;5.57;100.00
9421;BME280;4749;51.398;5.466;2023-03-16T00:27:29;101576.09;;;5.57;100.00
9421;BME280;4749;51.398;5.466;2023-03-16T00:29:56;101576.16;;;5.58;100.00
9421;BME280;4749;51.398;5.466;2023-03-16T00:32:30;101574.41;;;5.59;100.00
9421;BME280;4749;51.398;5.466;2023-03-16T00:34:59;101569.19;;;5.59;100.00
9421;BME280;4749;51.398;5.466;2023-03-16T00:37:28;101566.66;;;5.60;100.00
9421;BME280;4749;51.398;5.466;2023-03-16T00:39:57;101565.81;;;5.61;100.00
9421;BME280;4749;51.398;5.466;2023-03-16T00:42:28;101558.03;;;5.63;100.00
9421;BME280;4749;51.398;5.466;2023-03-16T00:44:57;101565.03;;;5.64;100.00
9421;BME280;4749;51.398;5.466;2023-03-16T00:47:30;101558.09;;;5.64;100.00
9421;BME280;4749;51.398;5.466;2023-03-16T00:50:01;101557.22;;;5.64;100.00
9421;BME280;4749;51.398;5.466;2023-03-16T00:52:29;101556.38;;;5.65;100.00
9421;BME280;4749;51.398;5.466;2023-03-16T00:54:56;101551.16;;;5.65;100.00
9421;BME280;4749;51.398;5.466;2023-03-16T00:57:25;101547.72;;;5.66;100.00
9421;BME280;4749;51.398;5.466;2023-03-16T00:59:53;101544.31;;;5.69;100.00
9421;BME280;4749;51.398;5.466;2023-03-16T01:02:21;101542.53;;;5.68;100.00
9421;BME280;4749;51.398;5.466;2023-03-16T01:04:52;101544.31;;;5.69;100.00
9421;BME280;4749;51.398;5.466;2023-03-16T01:07:21;101533.88;;;5.69;100.00
9421;BME280;4749;51.398;5.466;2023-03-16T01:09:48;101535.56;;;5.67;100.00
9421;BME280;4749;51.398;5.466;2023-03-16T01:12:17;101526.84;;;5.66;100.00
9421;BME280;4749;51.398;5.466;2023-03-16T01:14:46;101525.06;;;5.65;100.00
9421;BME280;4749;51.398;5.466;2023-03-16T01:17:15;101516.28;;;5.63;100.00
9421;BME280;4749;51.398;5.466;2023-03-16T01:19:44;101526.78;;;5.64;100.00
9421;BME280;4749;51.398;5.466;2023-03-16T01:22:12;101527.78;;;5.68;100.00
9421;BME280;4749;51.398;5.466;2023-03-16T01:24:41;101513.09;;;5.72;100.00
9421;BME280;4749;51.398;5.466;2023-03-16T01:27:08;101511.41;;;5.72;100.00
9421;BME280;4749;51.398;5.466;2023-03-16T01:29:36;101500.97;;;5.72;100.00
9421;BME280;4749;51.398;5.466;2023-03-16T01:32:04;101505.25;;;5.72;100.00
9421;BME280;4749;51.398;5.466;2023-03-16T01:34:33;101491.28;;;5.70;100.00
9421;BME280;4749;51.398;5.466;2023-03-16T01:37:01;101487.84;;;5.71;100.00
9421;BME280;4749;51.398;5.466;2023-03-16T01:39:29;101490.44;;;5.71;100.00
9421;BME280;4749;51.398;5.466;2023-03-16T01:41:56;101480.03;;;5.71;100.00
9421;BME280;4749;51.398;5.466;2023-03-16T01:44:25;101480.91;;;5.71;100.00
9421;BME280;4749;51.398;5.466;2023-03-16T01:47:01;101484.38;;;5.72;100.00
9421;BME280;4749;51.398;5.466;2023-03-16T01:49:33;101489.63;;;5.72;100.00
9421;BME280;4749;51.398;5.466;2023-03-16T01:52:09;101482.69;;;5.72;100.00
9421;BME280;4749;51.398;5.466;2023-03-16T01:54:51;101487.97;;;5.74;100.00
9421;BME280;4749;51.398;5.466;2023-03-16T01:57:27;101478.44;;;5.76;100.00
9421;BME280;4749;51.398;5.466;2023-03-16T02:00:14;101480.28;;;5.78;100.00
9421;BME280;4749;51.398;5.466;2023-03-16T02:02:55;101482.88;;;5.78;100.00
9421;BME280;4749;51.398;5.466;2023-03-16T02:05:44;101482.09;;;5.81;100.00
9421;BME280;4749;51.398;5.466;2023-03-16T02:08:15;101471.72;;;5.82;100.00
9421;BME280;4749;51.398;5.466;2023-03-16T02:10:43;101482.25;;;5.85;100.00
9421;BME280;4749;51.398;5.466;2023-03-16T02:13:13;101476.22;;;5.88;100.00
9421;BME280;4749;51.398;5.466;2023-03-16T02:15:40;101465.78;;;5.88;100.00
9421;BME280;4749;51.398;5.466;2023-03-16T02:18:08;101471.09;;;5.89;100.00
9421;BME280;4749;51.398;5.466;2023-03-16T02:20:49;101474.56;;;5.90;100.00
9421;BME280;4749;51.398;5.466;2023-03-16T02:23:20;101463.19;;;5.88;100.00
9421;BME280;4749;51.398;5.466;2023-03-16T02:31:37;101451.59;;;5.80;100.00
9421;BME280;4749;51.398;5.466;2023-03-16T02:34:06;101455.13;;;5.80;100.00
9421;BME280;4749;51.398;5.466;2023-03-16T02:36:36;101460.28;;;5.79;100.00
9421;BME280;4749;51.398;5.466;2023-03-16T02:39:04;101463.84;;;5.81;100.00
9421;BME280;4749;51.398;5.466;2023-03-16T02:41:31;101461.22;;;5.81;100.00
9421;BME280;4749;51.398;5.466;2023-03-16T02:44:26;101454.22;;;5.80;100.00
9421;BME280;4749;51.398;5.466;2023-03-16T02:46:57;101451.53;;;5.77;100.00
9421;BME280;4749;51.398;5.466;2023-03-16T02:49:37;101448.91;;;5.77;100.00
9421;BME280;4749;51.398;5.466;2023-03-16T02:52:06;101444.53;;;5.76;100.00
9421;BME280;4749;51.398;5.466;2023-03-16T02:54:33;101447.16;;;5.76;100.00
9421;BME280;4749;51.398;5.466;2023-03-16T02:57:01;101451.53;;;5.77;100.00
9421;BME280;4749;51.398;5.466;2023-03-16T02:59:28;101446.31;;;5.77;100.00
9421;BME280;4749;51.398;5.466;2023-03-16T03:01:56;101442.81;;;5.76;100.00
9421;BME280;4749;51.398;5.466;2023-03-16T03:04:23;101439.41;;;5.79;100.00
9421;BME280;4749;51.398;5.466;2023-03-16T03:06:51;101439.31;;;5.76;100.00
9421;BME280;4749;51.398;5.466;2023-03-16T03:09:19;101434.09;;;5.76;100.00
9421;BME280;4749;51.398;5.466;2023-03-16T03:11:46;101432.34;;;5.75;100.00
9421;BME280;4749;51.398;5.466;2023-03-16T03:14:14;101427.97;;;5.74;100.00
9421;BME280;4749;51.398;5.466;2023-03-16T03:16:42;101430.56;;;5.74;100.00
9421;BME280;4749;51.398;5.466;2023-03-16T03:19:13;101434.09;;;5.76;100.00
9421;BME280;4749;51.398;5.466;2023-03-16T03:21:40;101427.13;;;5.75;100.00
9421;BME280;4749;51.398;5.466;2023-03-16T03:24:08;101430.56;;;5.74;100.00
9421;BME280;4749;51.398;5.466;2023-03-16T03:26:36;101427.91;;;5.72;100.00
9421;BME280;4749;51.398;5.466;2023-03-16T03:29:04;101418.28;;;5.71;100.00
9421;BME280;4749;51.398;5.466;2023-03-16T03:31:32;101424.34;;;5.70;100.00
9421;BME280;4749;51.398;5.466;2023-03-16T03:33:59;101426.09;;;5.71;100.00
9421;BME280;4749;51.398;5.466;2023-03-16T03:36:33;101428.78;;;5.73;100.00
9421;BME280;4749;51.398;5.466;2023-03-16T03:39:01;101429.69;;;5.73;100.00
9421;BME280;4749;51.398;5.466;2023-03-16T03:41:32;101422.72;;;5.74;100.00
9421;BME280;4749;51.398;5.466;2023-03-16T03:44:00;101428.00;;;5.75;100.00
9421;BME280;4749;51.398;5.466;2023-03-16T03:46:27;101422.78;;;5.75;100.00
9421;BME280;4749;51.398;5.466;2023-03-16T03:48:54;101421.97;;;5.78;100.00
9421;BME280;4749;51.398;5.466;2023-03-16T03:51:24;101427.31;;;5.81;100.00
9421;BME280;4749;51.398;5.466;2023-03-16T03:53:51;101422.03;;;5.79;100.00
9421;BME280;4749;51.398;5.466;2023-03-16T03:56:18;101425.59;;;5.81;100.00
9421;BME280;4749;51.398;5.466;2023-03-16T03:58:45;101423.03;;;5.83;100.00
9421;BME280;4749;51.398;5.466;2023-03-16T04:01:12;101419.56;;;5.84;100.00
9421;BME280;4749;51.398;5.466;2023-03-16T04:03:39;101405.69;;;5.85;100.00
9421;BME280;4749;51.398;5.466;2023-03-16T04:06:10;101403.13;;;5.86;100.00
9421;BME280;4749;51.398;5.466;2023-03-16T04:08:37;101399.63;;;5.86;100.00
9421;BME280;4749;51.398;5.466;2023-03-16T04:11:05;101396.09;;;5.84;100.00
9421;BME280;4749;51.398;5.466;2023-03-16T04:13:32;101395.19;;;5.83;100.00
9421;BME280;4749;51.398;5.466;2023-03-16T04:16:00;101384.75;;;5.83;100.00
9421;BME280;4749;51.398;5.466;2023-03-16T04:18:31;101386.53;;;5.84;100.00
9421;BME280;4749;51.398;5.466;2023-03-16T04:21:05;101390.06;;;5.86;100.00
9421;BME280;4749;51.398;5.466;2023-03-16T04:23:33;101389.28;;;5.89;100.00
9421;BME280;4749;51.398;5.466;2023-03-16T04:26:01;101390.09;;;5.88;100.00
9421;BME280;4749;51.398;5.466;2023-03-16T04:28:28;101387.56;;;5.89;100.00
9421;BME280;4749;51.398;5.466;2023-03-16T04:31:05;101384.06;;;5.89;100.00
9421;BME280;4749;51.398;5.466;2023-03-16T04:33:34;101378.84;;;5.89;100.00
9421;BME280;4749;51.398;5.466;2023-03-16T04:36:03;101385.84;;;5.90;100.00
9421;BME280;4749;51.398;5.466;2023-03-16T04:38:32;101386.84;;;5.93;100.00
9421;BME280;4749;51.398;5.466;2023-03-16T04:41:04;101383.38;;;5.95;100.00
9421;BME280;4749;51.398;5.466;2023-03-16T04:43:33;101385.16;;;5.96;100.00
9421;BME280;4749;51.398;5.466;2023-03-16T04:46:03;101380.94;;;5.99;100.00
9421;BME280;4749;51.398;5.466;2023-03-16T04:48:32;101384.47;;;6.01;100.00
9421;BME280;4749;51.398;5.466;2023-03-16T04:51:00;101380.13;;;6.02;100.00
9421;BME280;4749;51.398;5.466;2023-03-16T04:53:30;101377.56;;;6.03;100.00
9421;BME280;4749;51.398;5.466;2023-03-16T04:55:58;101377.56;;;6.03;100.00
9421;BME280;4749;51.398;5.466;2023-03-16T04:58:25;101382.81;;;6.05;100.00
9421;BME280;4749;51.398;5.466;2023-03-16T05:00:53;101376.78;;;6.06;100.00
9421;BME280;4749;51.398;5.466;2023-03-16T05:03:22;101378.59;;;6.08;100.00
9421;BME280;4749;51.398;5.466;2023-03-16T05:05:50;101377.75;;;6.09;100.00
9421;BME280;4749;51.398;5.466;2023-03-16T05:08:17;101369.88;;;6.08;100.00
9421;BME280;4749;51.398;5.466;2023-03-16T05:10:44;101369.91;;;6.09;100.00
9421;BME280;4749;51.398;5.466;2023-03-16T05:13:14;101365.53;;;6.08;100.00
9421;BME280;4749;51.398;5.466;2023-03-16T05:15:41;101358.53;;;6.07;100.00
9421;BME280;4749;51.398;5.466;2023-03-16T05:18:08;101362.91;;;6.08;100.00
9421;BME280;4749;51.398;5.466;2023-03-16T05:20:35;101362.06;;;6.09;100.00
9421;BME280;4749;51.398;5.466;2023-03-16T05:23:03;101366.44;;;6.10;100.00
9421;BME280;4749;51.398;5.466;2023-03-16T05:25:30;101356.06;;;6.12;100.00
9421;BME280;4749;51.398;5.466;2023-03-16T05:27:57;101360.38;;;6.11;100.00
9421;BME280;4749;51.398;5.466;2023-03-16T05:30:25;101351.63;;;6.09;100.00
9421;BME280;4749;51.398;5.466;2023-03-16T05:32:52;101355.28;;;6.14;100.00
9421;BME280;4749;51.398;5.466;2023-03-16T05:35:20;101350.06;;;6.14;100.00
9421;BME280;4749;51.398;5.466;2023-03-16T05:37:50;101351.81;;;6.15;100.00
9421;BME280;4749;51.398;5.466;2023-03-16T05:40:17;101344.88;;;6.16;100.00
9421;BME280;4749;51.398;5.466;2023-03-16T05:42:53;101343.16;;;6.16;100.00
9421;BME280;4749;51.398;5.466;2023-03-16T05:45:22;101347.53;;;6.17;100.00
9421;BME280;4749;51.398;5.466;2023-03-16T05:47:49;101347.56;;;6.19;100.00
9421;BME280;4749;51.398;5.466;2023-03-16T05:50:17;101341.50;;;6.20;100.00
9421;BME280;4749;51.398;5.466;2023-03-16T05:52:44;101331.94;;;6.20;100.00
9421;BME280;4749;51.398;5.466;2023-03-16T05:55:16;101334.50;;;6.19;100.00
9421;BME280;4749;51.398;5.466;2023-03-16T05:57:44;101332.88;;;6.23;100.00
9421;BME280;4749;51.398;5.466;2023-03-16T06:00:13;101332.88;;;6.23;100.00
9421;BME280;4749;51.398;5.466;2023-03-16T06:02:43;101332.88;;;6.23;100.00
9421;BME280;4749;51.398;5.466;2023-03-16T06:05:13;101335.50;;;6.23;100.00
9421;BME280;4749;51.398;5.466;2023-03-16T06:07:41;101335.50;;;6.23;100.00
9421;BME280;4749;51.398;5.466;2023-03-16T06:10:10;101342.53;;;6.25;100.00
9421;BME280;4749;51.398;5.466;2023-03-16T06:12:37;101338.19;;;6.26;100.00
9421;BME280;4749;51.398;5.466;2023-03-16T06:15:07;101340.91;;;6.30;100.00
9421;BME280;4749;51.398;5.466;2023-03-16T06:17:35;101341.88;;;6.34;100.00
9421;BME280;4749;51.398;5.466;2023-03-16T06:20:05;101343.69;;;6.36;100.00
9421;BME280;4749;51.398;5.466;2023-03-16T06:22:38;101343.84;;;6.41;100.00
9421;BME280;4749;51.398;5.466;2023-03-16T06:25:07;101341.28;;;6.44;100.00
9421;BME280;4749;51.398;5.466;2023-03-16T06:27:36;101338.72;;;6.45;100.00
9421;BME280;4749;51.398;5.466;2023-03-16T06:30:05;101342.31;;;6.49;100.00
9421;BME280;4749;51.398;5.466;2023-03-16T06:32:33;101329.28;;;6.51;100.00
9421;BME280;4749;51.398;5.466;2023-03-16T06:35:02;101329.31;;;6.52;100.00
9421;BME280;4749;51.398;5.466;2023-03-16T06:37:30;101332.09;;;6.58;100.00
9421;BME280;4749;51.398;5.466;2023-03-16T06:39:58;101324.34;;;6.61;100.00
9421;BME280;4749;51.398;5.466;2023-03-16T06:42:25;101320.13;;;6.66;100.00
9421;BME280;4749;51.398;5.466;2023-03-16T06:44:53;101328.03;;;6.69;100.00
9421;BME280;4749;51.398;5.466;2023-03-16T06:47:20;101324.72;;;6.75;100.00
9421;BME280;4749;51.398;5.466;2023-03-16T06:49:48;101325.66;;;6.78;100.00
9421;BME280;4749;51.398;5.466;2023-03-16T06:52:17;101324.88;;;6.81;100.00
9421;BME280;4749;51.398;5.466;2023-03-16T06:54:45;101322.34;;;6.84;100.00
9421;BME280;4749;51.398;5.466;2023-03-16T06:57:12;101321.47;;;6.85;100.00
9421;BME280;4749;51.398;5.466;2023-03-16T06:59:40;101335.50;;;6.89;100.00
9421;BME280;4749;51.398;5.466;2023-03-16T07:02:12;101330.38;;;6.92;100.00
9421;BME280;4749;51.398;5.466;2023-03-16T07:04:40;101320.88;;;6.97;100.00
9421;BME280;4749;51.398;5.466;2023-03-16T07:07:08;101321.91;;;7.02;100.00
9421;BME280;4749;51.398;5.466;2023-03-16T07:09:36;101320.28;;;7.07;100.00
9421;BME280;4749;51.398;5.466;2023-03-16T07:12:08;101336.19;;;7.15;100.00
9421;BME280;4749;51.398;5.466;2023-03-16T07:14:35;101321.59;;;7.24;100.00
9421;BME280;4749;51.398;5.466;2023-03-16T07:17:03;101323.53;;;7.33;100.00
9421;BME280;4749;51.398;5.466;2023-03-16T07:19:30;101306.28;;;7.41;100.00
9421;BME280;4749;51.398;5.466;2023-03-16T07:21:58;101304.66;;;7.48;100.00
9421;BME280;4749;51.398;5.466;2023-03-16T07:24:25;101311.72;;;7.50;100.00
9421;BME280;4749;51.398;5.466;2023-03-16T07:26:53;101311.81;;;7.55;100.00
9421;BME280;4749;51.398;5.466;2023-03-16T07:29:21;101304.09;;;7.61;100.00
9421;BME280;4749;51.398;5.466;2023-03-16T07:31:48;101307.81;;;7.71;100.00
9421;BME280;4749;51.398;5.466;2023-03-16T07:34:15;101304.44;;;7.76;100.00
9421;BME280;4749;51.398;5.466;2023-03-16T07:36:44;101311.59;;;7.83;100.00
9421;BME280;4749;51.398;5.466;2023-03-16T07:39:11;101302.91;;;7.86;100.00
9421;BME280;4749;51.398;5.466;2023-03-16T07:41:40;101310.88;;;7.90;100.00
9421;BME280;4749;51.398;5.466;2023-03-16T07:44:07;101317.09;;;7.97;100.00
9421;BME280;4749;51.398;5.466;2023-03-16T07:46:34;101318.06;;;8.02;100.00
9421;BME280;4749;51.398;5.466;2023-03-16T07:49:01;101315.53;;;8.07;100.00
9421;BME280;4749;51.398;5.466;2023-03-16T07:51:29;101317.34;;;8.09;100.00
9421;BME280;4749;51.398;5.466;2023-03-16T07:53:57;101310.41;;;8.11;100.00
9421;BME280;4749;51.398;5.466;2023-03-16T07:56:24;101312.38;;;8.23;100.00
9421;BME280;4749;51.398;5.466;2023-03-16T07:58:55;101323.28;;;8.43;100.00
9421;BME280;4749;51.398;5.466;2023-03-16T08:01:22;101328.88;;;8.63;100.00
9421;BME280;4749;51.398;5.466;2023-03-16T08:03:50;101322.22;;;8.80;100.00
9421;BME280;4749;51.398;5.466;2023-03-16T08:06:17;101329.34;;;8.89;100.00
9421;BME280;4749;51.398;5.466;2023-03-16T08:08:44;101315.44;;;8.93;100.00
9421;BME280;4749;51.398;5.466;2023-03-16T08:11:12;101319.00;;;8.96;100.00
9421;BME280;4749;51.398;5.466;2023-03-16T08:13:40;101315.66;;;9.07;100.00
9421;BME280;4749;51.398;5.466;2023-03-16T08:16:09;101328.16;;;9.21;100.00
9421;BME280;4749;51.398;5.466;2023-03-16T08:18:39;101315.19;;;9.32;100.00
9421;BME280;4749;51.398;5.466;2023-03-16T08:21:07;101317.16;;;9.45;100.00
9421;BME280;4749;51.398;5.466;2023-03-16T08:23:34;101330.44;;;9.57;100.00
9421;BME280;4749;51.398;5.466;2023-03-16T08:26:02;101330.75;;;9.79;100.00
9421;BME280;4749;51.398;5.466;2023-03-16T08:28:35;101333.63;;;10.00;100.00
9421;BME280;4749;51.398;5.466;2023-03-16T08:31:06;101336.53;;;10.20;100.00
9421;BME280;4749;51.398;5.466;2023-03-16T08:33:34;101337.53;;;10.28;100.00
9421;BME280;4749;51.398;5.466;2023-03-16T08:36:05;101338.44;;;10.30;100.00
9421;BME280;4749;51.398;5.466;2023-03-16T08:38:33;101331.44;;;10.32;100.00
9421;BME280;4749;51.398;5.466;2023-03-16T08:41:01;101338.47;;;10.33;100.00
9421;BME280;4749;51.398;5.466;2023-03-16T08:43:28;101335.03;;;10.37;100.00
9421;BME280;4749;51.398;5.466;2023-03-16T08:45:56;101331.53;;;10.41;100.00
9421;BME280;4749;51.398;5.466;2023-03-16T08:48:24;101332.44;;;10.42;100.00
9421;BME280;4749;51.398;5.466;2023-03-16T08:50:52;101325.38;;;10.35;100.00
9421;BME280;4749;51.398;5.466;2023-03-16T08:53:20;101330.47;;;10.23;100.00
9421;BME280;4749;51.398;5.466;2023-03-16T08:55:47;101328.66;;;10.20;100.00
9421;BME280;4749;51.398;5.466;2023-03-16T08:58:14;101321.72;;;10.25;100.00
9421;BME280;4749;51.398;5.466;2023-03-16T09:00:41;101321.81;;;10.33;100.00
9421;BME280;4749;51.398;5.466;2023-03-16T09:03:12;101322.84;;;10.47;100.00
9421;BME280;4749;51.398;5.466;2023-03-16T09:05:39;101323.88;;;10.61;100.00
9421;BME280;4749;51.398;5.466;2023-03-16T09:08:08;101316.97;;;10.74;100.00
9421;BME280;4749;51.398;5.466;2023-03-16T09:10:35;101316.25;;;10.92;100.00
9421;BME280;4749;51.398;5.466;2023-03-16T09:13:03;101316.41;;;11.07;100.00
9421;BME280;4749;51.398;5.466;2023-03-16T09:15:31;101317.38;;;11.18;100.00
9421;BME280;4749;51.398;5.466;2023-03-16T09:17:58;101309.53;;;11.24;100.00
9421;BME280;4749;51.398;5.466;2023-03-16T09:20:26;101310.47;;;11.34;100.00
9421;BME280;4749;51.398;5.466;2023-03-16T09:22:56;101310.59;;;11.52;100.00
9421;BME280;4749;51.398;5.466;2023-03-16T09:25:25;101316.84;;;11.74;100.00
9421;BME280;4749;51.398;5.466;2023-03-16T09:27:52;101317.00;;;12.02;100.00
9421;BME280;4749;51.398;5.466;2023-03-16T09:30:20;101312.75;;;12.33;100.00
9421;BME280;4749;51.398;5.466;2023-03-16T09:32:47;101312.78;;;12.50;100.00
9421;BME280;4749;51.398;5.466;2023-03-16T09:35:15;101303.16;;;12.62;100.00
9421;BME280;4749;51.398;5.466;2023-03-16T09:37:42;101308.41;;;12.59;100.00
9421;BME280;4749;51.398;5.466;2023-03-16T09:40:30;101304.00;;;12.49;100.00
9421;BME280;4749;51.398;5.466;2023-03-16T09:43:19;101308.41;;;12.49;100.00
9421;BME280;4749;51.398;5.466;2023-03-16T09:46:12;101309.28;;;12.45;100.00
9421;BME280;4749;51.398;5.466;2023-03-16T09:48:42;101312.78;;;12.44;100.00
9421;BME280;4749;51.398;5.466;2023-03-16T09:57:00;101293.50;;;12.78;100.00
9421;BME280;4749;51.398;5.466;2023-03-16T09:59:27;101297.00;;;12.83;100.00
9421;BME280;4749;51.398;5.466;2023-03-16T10:02:29;101293.50;;;12.92;100.00
9421;BME280;4749;51.398;5.466;2023-03-16T10:11:01;101282.94;;;12.93;100.00
9421;BME280;4749;51.398;5.466;2023-03-16T10:16:39;101279.41;;;12.93;100.00
9421;BME280;4749;51.398;5.466;2023-03-16T10:19:16;101275.91;;;12.89;100.00
9421;BME280;4749;51.398;5.466;2023-03-16T10:21:46;101262.72;;;12.82;100.00
9421;BME280;4749;51.398;5.466;2023-03-16T10:24:43;101261.84;;;12.78;100.00
9421;BME280;4749;51.398;5.466;2023-03-16T10:27:19;101255.69;;;12.98;100.00
9421;BME280;4749;51.398;5.466;2023-03-16T10:29:49;101267.09;;;13.13;100.00
9421;BME280;4749;51.398;5.466;2023-03-16T10:32:17;101248.63;;;13.27;100.00
9421;BME280;4749;51.398;5.466;2023-03-16T10:37:46;101247.63;;;13.62;100.00
9421;BME280;4749;51.398;5.466;2023-03-16T10:40:15;101254.69;;;13.72;100.00
9421;BME280;4749;51.398;5.466;2023-03-16T10:42:46;101256.41;;;13.80;100.00
9421;BME280;4749;51.398;5.466;2023-03-16T10:45:29;101252.84;;;13.89;99.98
9421;BME280;4749;51.398;5.466;2023-03-16T10:48:11;101249.28;;;13.92;96.88
9421;BME280;4749;51.398;5.466;2023-03-16T10:50:42;101259.91;;;13.89;98.25
9421;BME280;4749;51.398;5.466;2023-03-16T10:53:30;101253.66;;;13.99;96.95
9421;BME280;4749;51.398;5.466;2023-03-16T10:56:19;101250.06;;;14.11;95.91
9421;BME280;4749;51.398;5.466;2023-03-16T10:58:46;101249.03;;;14.39;95.21
9421;BME280;4749;51.398;5.466;2023-03-16T11:01:22;101241.78;;;14.69;94.10
9421;BME280;4749;51.398;5.466;2023-03-16T11:03:52;101235.38;;;14.97;93.07
9421;BME280;4749;51.398;5.466;2023-03-16T11:06:27;101232.53;;;15.18;92.16
9421;BME280;4749;51.398;5.466;2023-03-16T11:09:09;101225.28;;;15.36;89.21
9421;BME280;4749;51.398;5.466;2023-03-16T11:11:39;101228.63;;;15.52;88.73
9421;BME280;4749;51.398;5.466;2023-03-16T11:14:12;101217.03;;;15.63;88.94
9421;BME280;4749;51.398;5.466;2023-03-16T11:17:06;101216.72;;;15.89;85.37
9421;BME280;4749;51.398;5.466;2023-03-16T11:22:16;101203.91;;;16.19;81.25
9421;BME280;4749;51.398;5.466;2023-03-16T11:24:58;101201.94;;;16.33;81.10
9421;BME280;4749;51.398;5.466;2023-03-16T11:27:50;101197.44;;;16.40;78.93
9421;BME280;4749;51.398;5.466;2023-03-16T11:32:56;101191.16;;;16.44;76.45
9421;BME280;4749;51.398;5.466;2023-03-16T11:41:18;101178.66;;;16.50;73.93
9421;BME280;4749;51.398;5.466;2023-03-16T11:43:55;101172.44;;;16.51;72.48
9421;BME280;4749;51.398;5.466;2023-03-16T11:46:50;101182.09;;;16.55;72.14
9421;BME280;4749;51.398;5.466;2023-03-16T11:49:56;101179.28;;;16.66;71.01
9421;BME280;4749;51.398;5.466;2023-03-16T11:53:12;101166.78;;;16.74;69.93
9421;BME280;4749;51.398;5.466;2023-03-16T11:58:49;101166.84;;;16.71;70.18
9421;BME280;4749;51.398;5.466;2023-03-16T12:11:04;101137.94;;;16.51;69.10
9421;BME280;4749;51.398;5.466;2023-03-16T12:17:08;101141.31;;;16.09;68.93
9421;BME280;4749;51.398;5.466;2023-03-16T12:20:11;101146.94;;;15.86;68.17
9421;BME280;4749;51.398;5.466;2023-03-16T12:23:11;101140.16;;;15.66;68.74
9421;BME280;4749;51.398;5.466;2023-03-16T12:25:44;101127.06;;;15.51;69.33
9421;BME280;4749;51.398;5.466;2023-03-16T12:28:25;101139.50;;;15.47;68.41
9421;BME280;4749;51.398;5.466;2023-03-16T12:31:16;101137.75;;;15.43;68.38
9421;BME280;4749;51.398;5.466;2023-03-16T12:36:55;101122.72;;;15.47;68.10
9421;BME280;4749;51.398;5.466;2023-03-16T12:39:45;101106.91;;;15.39;67.61
9421;BME280;4749;51.398;5.466;2023-03-16T12:42:25;101097.25;;;15.35;67.32
9421;BME280;4749;51.398;5.466;2023-03-16T12:45:03;101091.91;;;15.37;67.82
9421;BME280;4749;51.398;5.466;2023-03-16T12:50:25;101076.00;;;15.38;67.21
9421;BME280;4749;51.398;5.466;2023-03-16T12:52:53;101065.38;;;15.41;67.33
9421;BME280;4749;51.398;5.466;2023-03-16T12:55:45;101059.19;;;15.41;66.34
9421;BME280;4749;51.398;5.466;2023-03-16T12:58:16;101065.38;;;15.41;66.96
9421;BME280;4749;51.398;5.466;2023-03-16T13:00:57;101069.81;;;15.41;66.21
9421;BME280;4749;51.398;5.466;2023-03-16T13:03:26;101048.63;;;15.39;65.94
9421;BME280;4749;51.398;5.466;2023-03-16T13:05:57;101060.94;;;15.42;66.24
9421;BME280;4749;51.398;5.466;2023-03-16T13:08:26;101052.06;;;15.44;66.10
9421;BME280;4749;51.398;5.466;2023-03-16T13:13:26;101049.34;;;15.51;65.23
9421;BME280;4749;51.398;5.466;2023-03-16T13:16:06;101050.16;;;15.54;64.89
9421;BME280;4749;51.398;5.466;2023-03-16T13:18:41;101047.47;;;15.59;65.39
9421;BME280;4749;51.398;5.466;2023-03-16T13:21:33;101035.03;;;15.65;64.25
9421;BME280;4749;51.398;5.466;2023-03-16T13:24:33;101026.13;;;15.69;63.86
9421;BME280;4749;51.398;5.466;2023-03-16T13:27:13;101021.66;;;15.73;64.42
9421;BME280;4749;51.398;5.466;2023-03-16T13:30:00;101022.44;;;15.78;64.34
9421;BME280;4749;51.398;5.466;2023-03-16T13:32:32;101015.28;;;15.85;64.87
9421;BME280;4749;51.398;5.466;2023-03-16T13:35:01;101012.56;;;15.88;64.62
9421;BME280;4749;51.398;5.466;2023-03-16T13:37:31;101013.44;;;15.88;64.43
9421;BME280;4749;51.398;5.466;2023-03-16T13:40:01;101006.38;;;15.90;64.53
9421;BME280;4749;51.398;5.466;2023-03-16T13:42:32;100994.81;;;15.93;64.73
9421;BME280;4749;51.398;5.466;2023-03-16T13:45:13;100996.56;;;15.94;64.83
9421;BME280;4749;51.398;5.466;2023-03-16T13:47:43;101000.06;;;15.96;64.70
9421;BME280;4749;51.398;5.466;2023-03-16T13:50:12;100995.59;;;15.99;64.92
9421;BME280;4749;51.398;5.466;2023-03-16T13:52:40;100982.25;;;16.04;65.06
9421;BME280;4749;51.398;5.466;2023-03-16T13:55:16;100974.16;;;16.12;65.28
9421;BME280;4749;51.398;5.466;2023-03-16T13:57:46;100974.84;;;16.23;65.22
9421;BME280;4749;51.398;5.466;2023-03-16T14:00:25;100973.78;;;16.33;65.01
9421;BME280;4749;51.398;5.466;2023-03-16T14:02:56;100966.69;;;16.33;64.18
9421;BME280;4749;51.398;5.466;2023-03-16T14:05:32;100963.94;;;16.40;64.24
9421;BME280;4749;51.398;5.466;2023-03-16T14:08:01;100960.28;;;16.44;64.11
9421;BME280;4749;51.398;5.466;2023-03-16T14:10:34;100959.31;;;16.48;63.74
9421;BME280;4749;51.398;5.466;2023-03-16T14:16:13;100958.44;;;16.47;62.49
9421;BME280;4749;51.398;5.466;2023-03-16T14:18:51;100956.69;;;16.46;62.18
9421;BME280;4749;51.398;5.466;2023-03-16T14:21:26;100955.06;;;16.39;62.28
9421;BME280;4749;51.398;5.466;2023-03-16T14:24:04;100949.00;;;16.34;62.03
9421;BME280;4749;51.398;5.466;2023-03-16T14:26:41;100934.94;;;16.29;61.90
9421;BME280;4749;51.398;5.466;2023-03-16T14:29:30;100931.38;;;16.30;62.14
9421;BME280;4749;51.398;5.466;2023-03-16T14:31:58;100920.78;;;16.28;62.22
9421;BME280;4749;51.398;5.466;2023-03-16T14:34:34;100914.66;;;16.26;61.56